Time;durP1;ratioP1;P1;durP2;ratioP2;P2;SDS_P1;SDS_P2;PMS_P1;PMS_P2;Temp;Humidity;BMP_temperature;BMP_pressure;BME280_temperature;BME280_humidity;BME280_pressure;Samples;Min_cycle;Max_cycle;Signal;HPM_P1;HPM_P2
2022/05/08 00:01:00;;;;;;;0.00;0.00;;;;;;;10.07;53.77;99597.22;5050630;28;20032;-78
2022/05/08 00:03:25;;;;;;;0.00;0.00;;;;;;;10.02;54.23;99588.34;5049208;28;20021;-78
2022/05/08 00:05:51;;;;;;;0.00;0.00;;;;;;;9.99;54.24;99581.66;5049338;28;20075;-78
2022/05/08 00:08:16;;;;;;;0.00;0.00;;;;;;;10.00;54.22;99585.94;5050533;28;20071;-78
2022/05/08 00:10:41;;;;;;;0.00;0.00;;;;;;;9.95;54.72;99577.91;5050458;28;20029;-78
2022/05/08 00:13:09;;;;;;;0.00;0.00;;;;;;;9.96;54.44;99590.22;5049238;28;20029;-78
2022/05/08 00:15:35;;;;;;;0.00;0.00;;;;;;;9.92;55.19;99589.09;5049488;28;20061;-78
2022/05/08 00:18:00;;;;;;;0.00;0.00;;;;;;;9.86;54.92;99590.94;5049211;28;20291;-78
2022/05/08 00:20:26;;;;;;;0.57;0.57;;;;;;;9.85;55.27;99594.69;5050573;28;20086;-78
2022/05/08 00:22:51;;;;;;;0.00;0.00;;;;;;;9.85;55.21;99599.19;5049233;28;20090;-78
2022/05/08 00:25:17;;;;;;;0.00;0.00;;;;;;;9.83;55.21;99591.44;5048970;28;20214;-78
2022/05/08 00:27:42;;;;;;;0.00;0.00;;;;;;;9.74;54.95;99577.78;5048788;28;20034;-78
2022/05/08 00:30:08;;;;;;;0.00;0.00;;;;;;;9.70;55.07;99582.00;5049495;28;20112;-78
2022/05/08 00:32:34;;;;;;;0.00;0.00;;;;;;;9.75;55.24;99587.41;5054577;28;20032;-78
2022/05/08 00:34:59;;;;;;;0.00;0.00;;;;;;;9.76;55.18;99588.19;5054233;28;20476;-78
2022/05/08 00:37:24;;;;;;;0.00;0.00;;;;;;;9.75;55.18;99592.75;5052955;28;20029;-78
2022/05/08 00:39:50;;;;;;;0.00;0.00;;;;;;;9.68;55.19;99584.16;5054249;28;20503;-79
2022/05/08 00:42:16;;;;;;;0.00;0.00;;;;;;;9.66;55.35;99591.59;5038204;28;20424;-78
2022/05/08 00:44:41;;;;;;;0.00;0.00;;;;;;;9.58;55.66;99584.88;5033131;28;20068;-78
2022/05/08 00:47:07;;;;;;;0.00;0.00;;;;;;;9.56;55.98;99581.66;5033261;28;20172;-78
2022/05/08 00:49:32;;;;;;;0.00;0.00;;;;;;;9.56;55.94;99587.00;5033319;28;20478;-78
2022/05/08 00:51:59;;;;;;;0.00;0.00;;;;;;;9.49;56.23;99586.41;5034483;28;20033;-78
2022/05/08 00:54:25;;;;;;;0.00;0.00;;;;;;;9.45;56.36;99585.31;5032784;28;20038;-77
2022/05/08 00:56:53;;;;;;;0.00;0.00;;;;;;;9.37;56.80;99581.22;5049646;28;20490;-78
2022/05/08 00:59:19;;;;;;;0.00;0.00;;;;;;;9.35;56.81;99593.22;5034387;28;20026;-78
2022/05/08 01:01:45;;;;;;;0.10;0.10;;;;;;;9.37;57.09;99588.44;5033137;28;20116;-78
2022/05/08 01:04:10;;;;;;;0.00;0.00;;;;;;;9.34;56.97;99589.75;5032594;28;20479;-78
2022/05/08 01:06:36;;;;;;;0.00;0.00;;;;;;;9.29;57.17;99587.84;5034077;28;20087;-78
2022/05/08 01:09:02;;;;;;;0.00;0.00;;;;;;;9.28;57.31;99583.56;5033049;28;20460;-78
2022/05/08 01:11:27;;;;;;;0.00;0.00;;;;;;;9.28;57.22;99588.09;5033710;28;20371;-78
2022/05/08 01:13:53;;;;;;;0.00;0.00;;;;;;;9.22;57.07;99581.91;5034199;28;20029;-78
2022/05/08 01:16:20;;;;;;;0.00;0.00;;;;;;;9.20;56.92;99583.22;5033402;28;20037;-78
2022/05/08 01:18:46;;;;;;;0.00;0.00;;;;;;;9.19;57.04;99582.44;5033920;28;20397;-78
2022/05/08 01:21:22;;;;;;;0.00;0.00;;;;;;;9.23;56.97;99582.72;5033700;28;20053;-78
2022/05/08 01:23:49;;;;;;;0.00;0.00;;;;;;;9.23;57.11;99580.06;5034327;28;20080;-78
2022/05/08 01:26:21;;;;;;;0.00;0.00;;;;;;;9.17;56.76;99575.72;5033698;28;20464;-78
2022/05/08 01:28:47;;;;;;;0.00;0.00;;;;;;;9.16;57.37;99579.47;5032493;28;20393;-78
2022/05/08 01:31:12;;;;;;;0.35;0.35;;;;;;;9.11;57.39;99580.22;5033725;28;20021;-78
2022/05/08 01:33:38;;;;;;;0.00;0.00;;;;;;;9.05;57.76;99576.69;5032379;28;20025;-78
2022/05/08 01:36:03;;;;;;;0.00;0.00;;;;;;;8.99;57.67;99576.91;5032436;28;20030;-78
2022/05/08 01:38:28;;;;;;;0.00;0.00;;;;;;;8.96;57.99;99579.00;5032199;28;20063;-78
2022/05/08 01:40:55;;;;;;;0.00;0.00;;;;;;;8.90;57.82;99577.34;5036289;28;20054;-78
2022/05/08 01:43:21;;;;;;;0.00;0.00;;;;;;;8.91;58.07;99580.81;5052644;28;20025;-78
2022/05/08 01:45:47;;;;;;;0.00;0.00;;;;;;;8.89;57.85;99580.28;5052099;28;20491;-78
2022/05/08 01:48:22;;;;;;;0.00;0.00;;;;;;;8.85;57.90;99573.81;5051674;28;20025;-78
2022/05/08 01:50:50;;;;;;;0.00;0.00;;;;;;;8.82;58.04;99580.47;5053877;28;20143;-78
2022/05/08 01:53:18;;;;;;;0.00;0.00;;;;;;;8.73;58.54;99580.09;5052894;28;20501;-78
2022/05/08 01:55:43;;;;;;;0.00;0.00;;;;;;;8.75;58.73;99587.84;5051931;28;20033;-78
2022/05/08 01:58:09;;;;;;;0.00;0.00;;;;;;;8.75;58.61;99587.84;5053085;28;20032;-78
2022/05/08 02:00:34;;;;;;;0.00;0.00;;;;;;;8.74;58.73;99588.91;5053287;28;20033;-78
2022/05/08 02:03:02;;;;;;;0.00;0.00;;;;;;;8.70;58.53;99579.81;5051817;28;20092;-78
2022/05/08 02:05:29;;;;;;;0.00;0.00;;;;;;;8.69;57.93;99584.34;5053183;28;20464;-78
2022/05/08 02:07:55;;;;;;;0.00;0.00;;;;;;;8.60;57.94;99572.50;5051939;28;20488;-78
2022/05/08 02:10:21;;;;;;;0.00;0.00;;;;;;;8.60;58.92;99572.50;5051688;28;20033;-78
2022/05/08 02:12:46;;;;;;;0.00;0.00;;;;;;;8.47;60.01;99566.50;5052036;28;20078;-78
2022/05/08 02:15:13;;;;;;;0.00;0.00;;;;;;;8.40;60.92;99570.34;5052679;28;20063;-78
2022/05/08 02:17:39;;;;;;;0.00;0.00;;;;;;;8.36;61.51;99575.41;5053041;28;20101;-78
2022/05/08 02:20:06;;;;;;;0.00;0.00;;;;;;;8.35;61.33;99573.78;5053196;28;20061;-78
2022/05/08 02:22:36;;;;;;;0.00;0.00;;;;;;;8.33;62.43;99570.56;5052643;28;20021;-78
2022/05/08 02:25:06;;;;;;;0.00;0.00;;;;;;;8.29;62.88;99575.56;5051830;28;20029;-78
2022/05/08 02:27:41;;;;;;;0.03;0.03;;;;;;;8.31;62.79;99572.66;5051438;28;20056;-78
2022/05/08 02:30:11;;;;;;;0.00;0.00;;;;;;;8.28;62.65;99570.50;5052504;28;20080;-78
2022/05/08 02:32:38;;;;;;;0.00;0.00;;;;;;;8.28;62.54;99571.28;5051489;28;20462;-78
2022/05/08 02:35:09;;;;;;;0.00;0.00;;;;;;;8.29;62.30;99574.78;5052983;28;20032;-78
2022/05/08 02:37:36;;;;;;;0.00;0.00;;;;;;;8.23;62.21;99570.44;5051865;28;20052;-78
2022/05/08 02:40:02;;;;;;;0.00;0.00;;;;;;;8.25;61.80;99578.97;5052442;28;20036;-78
2022/05/08 02:42:27;;;;;;;0.00;0.00;;;;;;;8.27;61.83;99575.00;5036171;28;20025;-78
2022/05/08 02:44:53;;;;;;;0.00;0.00;;;;;;;8.25;61.54;99561.16;5032518;28;20079;-78
2022/05/08 02:47:18;;;;;;;0.00;0.00;;;;;;;8.23;61.29;99567.78;5031072;28;20022;-78
2022/05/08 02:49:44;;;;;;;0.00;0.00;;;;;;;8.25;60.99;99569.13;5031299;28;20439;-78
2022/05/08 02:52:09;;;;;;;0.00;0.00;;;;;;;8.25;61.00;99569.13;5032678;28;20064;-78
2022/05/08 02:54:35;;;;;;;0.00;0.00;;;;;;;8.24;61.00;99572.84;5030211;28;20034;-78
2022/05/08 02:59:44;;;;;;;0.10;0.10;;;;;;;8.25;61.66;99571.81;5032018;28;20048;-78
2022/05/08 03:02:10;;;;;;;0.00;0.00;;;;;;;8.21;61.37;99565.34;5032658;28;20104;-78
2022/05/08 03:04:35;;;;;;;0.00;0.00;;;;;;;8.17;61.87;99570.34;5030550;28;20415;-78
2022/05/08 03:07:02;;;;;;;0.00;0.00;;;;;;;8.18;61.93;99574.63;5031688;28;20021;-78
2022/05/08 03:09:27;;;;;;;0.00;0.00;;;;;;;8.21;62.05;99578.66;5030722;28;20454;-78
2022/05/08 03:11:53;;;;;;;0.00;0.00;;;;;;;8.27;62.23;99582.22;5030916;28;20021;-78
2022/05/08 03:14:20;;;;;;;0.00;0.00;;;;;;;8.27;62.27;99579.53;5030712;28;20061;-78
2022/05/08 03:16:46;;;;;;;0.00;0.00;;;;;;;8.28;62.26;99578.50;5032266;28;20084;-78
2022/05/08 03:19:13;;;;;;;0.00;0.00;;;;;;;8.28;62.28;99581.16;5031800;28;20037;-78
2022/05/08 03:21:40;;;;;;;0.00;0.00;;;;;;;8.22;62.12;99569.63;5032200;28;20564;-78
2022/05/08 03:24:10;;;;;;;0.00;0.00;;;;;;;8.37;61.84;99584.19;5030897;28;20116;-78
2022/05/08 03:26:36;;;;;;;0.03;0.03;;;;;;;8.45;61.62;99589.09;5032201;28;20034;-78
2022/05/08 03:29:03;;;;;;;0.00;0.00;;;;;;;8.60;61.45;99591.94;5030504;28;20026;-78
2022/05/08 03:31:28;;;;;;;1.50;0.22;;;;;;;8.63;61.18;99596.00;5031239;28;20037;-78
2022/05/08 03:33:53;;;;;;;0.00;0.00;;;;;;;8.72;60.74;99596.38;5030631;28;20432;-78
2022/05/08 03:36:19;;;;;;;0.00;0.00;;;;;;;8.85;60.83;99600.50;5030491;28;20135;-78
2022/05/08 03:38:46;;;;;;;0.00;0.00;;;;;;;9.03;60.74;99594.00;5031819;28;20033;-78
2022/05/08 03:41:19;;;;;;;0.00;0.00;;;;;;;9.36;61.05;99601.00;5054093;28;20099;-78
2022/05/08 03:43:46;;;;;;;0.00;0.00;;;;;;;9.73;60.73;99602.09;5050004;28;20646;-77
2022/05/08 03:46:15;;;;;;;0.00;0.00;;;;;;;10.12;58.87;99598.28;5049584;28;20389;-77
2022/05/08 03:48:41;;;;;;;0.00;0.00;;;;;;;10.31;58.12;99607.47;5051030;28;20025;-77
2022/05/08 03:51:08;;;;;;;0.00;0.00;;;;;;;10.40;57.16;99610.50;5049450;28;20131;-77
2022/05/08 03:53:33;;;;;;;0.00;0.00;;;;;;;10.47;56.85;99602.25;5049377;28;20029;-77
2022/05/08 03:55:59;;;;;;;0.00;0.00;;;;;;;10.46;56.44;99612.16;5050941;28;20040;-78
2022/05/08 03:58:26;;;;;;;0.00;0.00;;;;;;;10.47;57.22;99612.94;5050718;28;20025;-77
2022/05/08 04:00:51;;;;;;;0.00;0.00;;;;;;;10.38;58.74;99615.31;5049592;28;20024;-77
2022/05/08 04:03:16;;;;;;;0.10;0.10;;;;;;;10.32;59.71;99613.66;5049169;28;20469;-78
2022/05/08 04:05:42;;;;;;;0.00;0.00;;;;;;;10.22;60.82;99617.06;5053632;28;20532;-77
2022/05/08 04:08:07;;;;;;;0.00;0.00;;;;;;;10.06;61.54;99614.31;5056129;28;20495;-77
2022/05/08 04:10:33;;;;;;;0.00;0.00;;;;;;;9.98;62.55;99614.00;5056312;28;20028;-77
2022/05/08 04:12:59;;;;;;;0.20;0.20;;;;;;;10.00;61.85;99618.00;5058038;28;20025;-77
2022/05/08 04:18:09;;;;;;;0.00;0.00;;;;;;;9.87;66.28;99621.94;5057365;28;20032;-77
2022/05/08 04:20:35;;;;;;;0.00;0.00;;;;;;;9.83;66.96;99618.16;5055706;28;20033;-77
2022/05/08 04:25:44;;;;;;;0.20;0.20;;;;;;;9.70;69.64;99622.06;5057344;28;20043;-77
2022/05/08 04:28:11;;;;;;;0.20;0.20;;;;;;;9.70;70.17;99621.28;5055762;28;20025;-77
2022/05/08 04:30:37;;;;;;;0.25;0.25;;;;;;;9.69;70.49;99625.81;5057342;28;20037;-77
2022/05/08 04:33:02;;;;;;;0.00;0.00;;;;;;;9.68;71.24;99626.06;5056110;28;20408;-77
2022/05/08 04:35:28;;;;;;;0.00;0.00;;;;;;;9.69;71.24;99628.50;5055847;28;20040;-77
2022/05/08 04:37:53;;;;;;;0.03;0.03;;;;;;;9.67;71.97;99629.81;5056237;28;20037;-79
2022/05/08 04:40:19;;;;;;;0.28;0.28;;;;;;;9.63;72.18;99628.69;5055466;28;20222;-79
2022/05/08 04:42:44;;;;;;;0.08;0.08;;;;;;;9.62;72.35;99633.25;5055872;28;20436;-79
2022/05/08 04:45:11;;;;;;;0.00;0.00;;;;;;;9.68;72.18;99629.56;5055599;28;20049;-79
2022/05/08 04:47:36;;;;;;;0.00;0.00;;;;;;;9.70;72.57;99627.41;5055465;28;20029;-79
2022/05/08 04:50:02;;;;;;;0.00;0.00;;;;;;;9.67;72.74;99632.50;5055817;28;20466;-78
2022/05/08 04:52:28;;;;;;;0.10;0.10;;;;;;;9.62;73.19;99625.22;5057134;28;20553;-79
2022/05/08 04:54:53;;;;;;;0.00;0.00;;;;;;;9.63;73.11;99629.53;5056875;28;20025;-79
2022/05/08 04:57:19;;;;;;;0.10;0.10;;;;;;;9.64;73.05;99627.63;5072376;28;20119;-79
2022/05/08 04:59:44;;;;;;;0.00;0.00;;;;;;;9.70;73.59;99626.63;5055621;28;20032;-79
2022/05/08 05:02:10;;;;;;;0.00;0.00;;;;;;;9.68;73.94;99637.56;5055834;28;20017;-79
2022/05/08 05:04:35;;;;;;;0.00;0.00;;;;;;;9.81;73.37;99638.19;5055269;28;20107;-78
2022/05/08 05:07:01;;;;;;;0.00;0.00;;;;;;;9.95;73.40;99639.38;5055449;28;20021;-79
2022/05/08 05:09:27;;;;;;;0.00;0.00;;;;;;;9.92;72.49;99634.53;5055307;28;20029;-79
2022/05/08 05:11:52;;;;;;;0.00;0.00;;;;;;;9.94;72.51;99635.88;5055291;28;20086;-78
2022/05/08 05:14:18;;;;;;;0.10;0.10;;;;;;;9.98;72.64;99640.72;5055300;28;20036;-78
2022/05/08 05:16:43;;;;;;;0.40;0.40;;;;;;;10.04;72.45;99637.81;5054861;28;20587;-79
2022/05/08 05:19:08;;;;;;;0.10;0.10;;;;;;;10.10;71.79;99639.44;5052008;28;20507;-78
2022/05/08 05:21:34;;;;;;;0.88;0.35;;;;;;;10.21;71.90;99637.63;5053394;28;20116;-79
2022/05/08 05:23:59;;;;;;;0.00;0.00;;;;;;;10.27;71.57;99635.00;5053727;28;20082;-79
2022/05/08 05:26:25;;;;;;;0.00;0.00;;;;;;;10.41;71.96;99636.97;5051771;28;20403;-79
2022/05/08 05:28:51;;;;;;;0.65;0.65;;;;;;;10.50;71.79;99637.28;5053343;28;20404;-79
2022/05/08 05:31:17;;;;;;;0.63;0.60;;;;;;;10.65;71.44;99638.41;5053514;28;20509;-78
2022/05/08 05:33:44;;;;;;;0.77;0.73;;;;;;;10.81;71.01;99647.31;5051917;28;20175;-79
2022/05/08 05:36:09;;;;;;;0.10;0.10;;;;;;;10.92;70.45;99643.59;5053336;28;20024;-79
2022/05/08 05:38:35;;;;;;;0.25;0.25;;;;;;;11.02;70.49;99643.63;5051824;28;20029;-77
2022/05/08 05:41:00;;;;;;;0.00;0.00;;;;;;;11.16;70.01;99648.47;5049152;28;20054;-78
2022/05/08 05:43:26;;;;;;;0.52;0.52;;;;;;;11.27;70.19;99652.78;5032775;28;20583;-79
2022/05/08 05:47:49;;;;;;;0.00;0.00;;;;;;;11.19;69.99;99655.97;5031905;28;20045;-77
2022/05/08 05:48:37;;;;;;;0.00;0.00;;;;;;;11.13;69.94;99659.69;5032555;28;20493;-77
2022/05/08 05:51:03;;;;;;;0.00;0.00;;;;;;;10.97;70.94;99646.28;5031930;28;20038;-77
2022/05/08 05:53:29;;;;;;;3.28;1.75;;;;;;;10.91;70.84;99650.00;5031659;28;20112;-77
2022/05/08 05:55:57;;;;;;;0.00;0.00;;;;;;;10.77;71.96;99654.25;5032018;28;20067;-77
2022/05/08 05:58:23;;;;;;;0.28;0.28;;;;;;;10.78;72.44;99655.84;5033415;28;20109;-78
2022/05/08 06:00:48;;;;;;;0.00;0.00;;;;;;;10.76;71.91;99663.34;5033454;28;20108;-77
2022/05/08 06:03:14;;;;;;;0.82;0.82;;;;;;;10.70;72.52;99657.16;5032919;28;20476;-77
2022/05/08 06:05:39;;;;;;;0.10;0.10;;;;;;;10.61;73.00;99656.88;5031294;28;20032;-78
2022/05/08 06:08:05;;;;;;;2.15;0.50;;;;;;;10.69;73.05;99645.66;5032663;28;20400;-77
2022/05/08 06:10:30;;;;;;;0.00;0.00;;;;;;;10.78;73.09;99650.50;5031081;28;20480;-77
2022/05/08 06:12:56;;;;;;;0.00;0.00;;;;;;;10.89;72.52;99644.91;5031551;28;20128;-77
2022/05/08 06:15:21;;;;;;;0.00;0.00;;;;;;;10.92;72.43;99646.25;5031713;28;20057;-77
2022/05/08 06:17:47;;;;;;;0.28;0.28;;;;;;;11.04;72.04;99649.50;5030793;28;20417;-79
2022/05/08 06:20:12;;;;;;;0.22;0.22;;;;;;;11.13;72.09;99649.81;5031097;28;20029;-79
2022/05/08 06:22:38;;;;;;;0.10;0.10;;;;;;;11.26;71.51;99651.16;5031808;28;20028;-78
2022/05/08 06:25:04;;;;;;;0.00;0.00;;;;;;;11.32;71.40;99651.97;5032119;28;20029;-79
2022/05/08 06:27:29;;;;;;;0.35;0.35;;;;;;;11.36;71.66;99650.38;5031860;28;20022;-77
2022/05/08 06:29:55;;;;;;;0.10;0.10;;;;;;;11.45;71.06;99651.47;5030748;28;20459;-78
2022/05/08 06:32:21;;;;;;;0.00;0.00;;;;;;;11.44;70.40;99651.75;5032150;28;20029;-78
2022/05/08 06:34:47;;;;;;;0.40;0.40;;;;;;;11.38;70.43;99649.03;5030628;28;20108;-78
2022/05/08 06:37:13;;;;;;;0.47;0.45;;;;;;;11.42;70.82;99649.31;5030645;28;20497;-78
2022/05/08 06:39:38;;;;;;;0.00;0.00;;;;;;;11.41;70.60;99646.91;5030585;28;20032;-78
2022/05/08 06:42:06;;;;;;;0.55;0.43;;;;;;;11.40;70.97;99646.09;5043084;28;20052;-78
2022/05/08 06:44:31;;;;;;;0.00;0.00;;;;;;;11.41;70.41;99645.00;5050515;28;20496;-77
2022/05/08 06:46:57;;;;;;;0.10;0.10;;;;;;;11.42;70.66;99643.94;5050675;28;20056;-77
2022/05/08 06:49:22;;;;;;;0.45;0.45;;;;;;;11.58;70.44;99652.78;5050255;28;20028;-77
2022/05/08 06:51:48;;;;;;;0.45;0.45;;;;;;;11.53;69.88;99655.47;5050652;28;20119;-77
2022/05/08 06:54:13;;;;;;;0.17;0.17;;;;;;;11.44;70.30;99652.53;5050103;28;20048;-77
2022/05/08 06:56:41;;;;;;;0.25;0.25;;;;;;;11.52;70.96;99651.19;5066882;28;20028;-77
2022/05/08 07:01:51;;;;;;;0.35;0.35;;;;;;;11.92;69.76;99646.09;5051553;28;20036;-77
2022/05/08 07:04:16;;;;;;;0.00;0.00;;;;;;;12.04;69.67;99641.28;5050489;28;20032;-77
2022/05/08 07:06:42;;;;;;;0.20;0.20;;;;;;;12.09;68.52;99646.63;5051687;28;20513;-79
2022/05/08 07:09:08;;;;;;;0.88;0.75;;;;;;;12.26;68.74;99643.63;5049900;28;20021;-77
2022/05/08 07:11:33;;;;;;;0.43;0.43;;;;;;;12.39;67.64;99646.81;5051576;28;20132;-77
2022/05/08 07:14:00;;;;;;;0.55;0.55;;;;;;;12.55;67.06;99644.88;5051534;28;20029;-77
2022/05/08 07:16:27;;;;;;;0.20;0.20;;;;;;;12.73;67.43;99638.09;5051242;28;20028;-77
2022/05/08 07:18:53;;;;;;;2.55;1.38;;;;;;;12.82;66.87;99634.56;5050095;28;20035;-78
2022/05/08 07:21:19;;;;;;;0.15;0.15;;;;;;;13.06;67.54;99635.78;5051147;28;20400;-80
2022/05/08 07:23:45;;;;;;;0.10;0.10;;;;;;;13.25;66.50;99635.94;5051402;28;20033;-78
2022/05/08 07:26:11;;;;;;;0.00;0.00;;;;;;;13.41;64.21;99634.00;5050927;28;20033;-78
2022/05/08 07:28:37;;;;;;;0.05;0.05;;;;;;;13.60;63.91;99637.59;5049607;28;20029;-78
2022/05/08 07:31:03;;;;;;;1.05;0.95;;;;;;;13.76;62.83;99640.16;5049916;28;20029;-78
2022/05/08 07:33:30;;;;;;;0.30;0.30;;;;;;;13.77;61.00;99639.88;5049665;28;20484;-78
2022/05/08 07:36:13;;;;;;;0.63;0.63;;;;;;;13.94;61.21;99638.66;5050957;28;20027;-77
2022/05/08 07:38:40;;;;;;;0.40;0.40;;;;;;;14.08;62.32;99633.41;5066228;28;20021;-77
2022/05/08 07:41:06;;;;;;;0.10;0.10;;;;;;;14.22;61.32;99642.41;5045333;28;20041;-77
2022/05/08 07:43:31;;;;;;;0.20;0.20;;;;;;;14.33;60.42;99635.03;5029252;28;20475;-77
2022/05/08 07:45:57;;;;;;;0.10;0.10;;;;;;;14.49;61.91;99632.13;5030893;28;20025;-77
2022/05/08 07:48:22;;;;;;;0.00;0.00;;;;;;;14.80;59.40;99629.91;5029471;28;20025;-77
2022/05/08 07:50:48;;;;;;;0.10;0.10;;;;;;;14.83;57.70;99637.41;5029629;28;20477;-78
2022/05/08 07:53:13;;;;;;;0.00;0.00;;;;;;;14.92;56.79;99629.47;5030676;28;20385;-77
2022/05/08 07:55:39;;;;;;;0.47;0.32;;;;;;;14.96;55.34;99630.50;5029435;28;20034;-77
2022/05/08 07:58:05;;;;;;;0.63;0.50;;;;;;;15.01;54.62;99632.31;5031225;28;20107;-77
2022/05/08 08:00:31;;;;;;;0.13;0.13;;;;;;;15.09;52.48;99636.25;5029389;28;20469;-78
2022/05/08 08:02:57;;;;;;;0.10;0.10;;;;;;;15.15;50.62;99629.72;5030848;28;20025;-78
2022/05/08 08:05:23;;;;;;;0.03;0.03;;;;;;;15.18;53.49;99638.03;5029238;28;20072;-78
2022/05/08 08:07:49;;;;;;;0.20;0.20;;;;;;;15.38;54.23;99636.09;5029428;28;20035;-78
2022/05/08 08:10:14;;;;;;;0.00;0.00;;;;;;;15.50;52.59;99633.75;5030690;28;20041;-78
2022/05/08 08:12:40;;;;;;;0.75;0.75;;;;;;;15.62;52.30;99627.09;5030124;28;20033;-78
2022/05/08 08:15:06;;;;;;;0.10;0.10;;;;;;;15.74;53.09;99626.63;5030471;28;20029;-77
2022/05/08 08:17:31;;;;;;;0.22;0.22;;;;;;;15.86;53.92;99631.59;5029252;28;20112;-77
2022/05/08 08:19:57;;;;;;;0.00;0.00;;;;;;;16.00;53.23;99624.28;5031016;28;20417;-78
2022/05/08 08:22:23;;;;;;;0.35;0.35;;;;;;;16.11;52.90;99622.22;5029162;28;20063;-78
2022/05/08 08:24:49;;;;;;;0.17;0.17;;;;;;;16.20;50.44;99630.41;5029354;28;20041;-78
2022/05/08 08:27:19;;;;;;;0.38;0.38;;;;;;;16.30;51.18;99619.44;5030715;28;20025;-78
2022/05/08 08:29:45;;;;;;;1.02;1.02;;;;;;;16.40;51.38;99621.13;5030712;28;20489;-78
2022/05/08 08:32:10;;;;;;;0.43;0.43;;;;;;;16.47;48.80;99622.31;5029109;28;20405;-78
2022/05/08 08:34:36;;;;;;;0.40;0.40;;;;;;;16.51;47.04;99613.63;5029006;28;20033;-78
2022/05/08 08:37:01;;;;;;;0.10;0.10;;;;;;;16.45;46.56;99621.03;5030495;28;20029;-78
2022/05/08 08:39:26;;;;;;;0.28;0.28;;;;;;;16.37;44.67;99619.00;5030091;28;20026;-76
2022/05/08 08:42:11;;;;;;;1.20;0.75;;;;;;;16.35;45.95;99618.53;5041430;28;20041;-77
2022/05/08 08:50:06;;;;;;;0.00;0.00;;;;;;;16.61;47.96;99603.41;5049837;28;20334;-79
2022/05/08 08:52:31;;;;;;;1.33;0.43;;;;;;;16.73;47.23;99602.88;5050784;28;20032;-79
2022/05/08 08:54:58;;;;;;;0.20;0.20;;;;;;;16.79;45.72;99608.97;5054087;28;20374;-77
2022/05/08 08:57:24;;;;;;;0.22;0.22;;;;;;;16.87;45.09;99610.97;5053157;28;20508;-77
2022/05/08 08:59:49;;;;;;;0.10;0.10;;;;;;;16.89;44.52;99606.03;5053417;28;20045;-77
2022/05/08 09:02:20;;;;;;;0.82;0.82;;;;;;;16.99;44.09;99607.78;5054029;28;20033;-77
2022/05/08 09:04:46;;;;;;;0.82;0.82;;;;;;;16.98;44.08;99600.75;5052244;28;20033;-77
2022/05/08 09:07:34;;;;;;;0.68;0.68;;;;;;;17.04;44.52;99604.94;5053591;28;20557;-79
2022/05/08 09:10:35;;;;;;;0.83;0.83;;;;;;;17.09;45.71;99593.22;5053882;28;20021;-77
2022/05/08 09:13:01;;;;;;;0.43;0.43;;;;;;;17.10;46.14;99584.81;5049675;28;20041;-79
2022/05/08 09:15:30;;;;;;;0.40;0.40;;;;;;;17.13;46.89;99594.97;5052892;28;20480;-79
2022/05/08 09:18:00;;;;;;;0.00;0.00;;;;;;;17.29;45.16;99587.31;5053365;28;20036;-78
2022/05/08 09:20:26;;;;;;;1.45;1.45;;;;;;;17.36;45.03;99600.41;5053169;28;20036;-78
2022/05/08 09:23:04;;;;;;;0.73;0.73;;;;;;;17.32;44.72;99585.91;5052136;28;20052;-79
2022/05/08 09:25:45;;;;;;;0.20;0.20;;;;;;;17.32;45.14;99585.09;5053112;28;20033;-78
2022/05/08 09:28:15;;;;;;;0.45;0.45;;;;;;;17.34;44.90;99589.09;5052104;28;20056;-78
2022/05/08 09:30:56;;;;;;;0.30;0.30;;;;;;;17.43;45.19;99591.84;5053179;28;20025;-78
2022/05/08 09:33:32;;;;;;;0.20;0.20;;;;;;;17.36;44.65;99589.59;5053195;28;20025;-78
2022/05/08 09:35:59;;;;;;;1.20;1.10;;;;;;;17.41;44.01;99584.06;5053619;28;20036;-78
2022/05/08 09:38:43;;;;;;;0.10;0.10;;;;;;;17.45;43.64;99586.94;5053121;28;20569;-78
2022/05/08 09:41:09;;;;;;;0.30;0.30;;;;;;;17.47;43.39;99583.91;5046158;28;20071;-78
2022/05/08 09:43:35;;;;;;;0.10;0.10;;;;;;;17.52;42.58;99578.41;5032836;28;20029;-78
2022/05/08 09:46:03;;;;;;;1.00;0.93;;;;;;;17.59;42.42;99576.06;5032930;28;20513;-78
2022/05/08 09:48:29;;;;;;;2.58;0.47;;;;;;;17.63;43.82;99573.53;5033062;28;20052;-78
2022/05/08 09:50:59;;;;;;;0.30;0.30;;;;;;;17.73;44.46;99573.25;5031556;28;20053;-78
2022/05/08 09:53:26;;;;;;;0.32;0.32;;;;;;;17.84;44.18;99568.38;5032843;28;20030;-78
2022/05/08 09:55:53;;;;;;;0.10;0.10;;;;;;;17.99;41.82;99569.91;5033129;28;20037;-78
2022/05/08 09:58:19;;;;;;;0.27;0.27;;;;;;;18.00;39.99;99568.78;5031782;28;20033;-78
2022/05/08 10:00:46;;;;;;;0.20;0.20;;;;;;;18.14;39.78;99564.06;5032658;28;20087;-78
2022/05/08 10:03:12;;;;;;;0.10;0.10;;;;;;;18.26;39.78;99554.53;5032434;28;20037;-78
2022/05/08 10:05:39;;;;;;;0.10;0.10;;;;;;;18.29;38.37;99557.41;5031272;28;20471;-78
2022/05/08 10:08:07;;;;;;;0.10;0.10;;;;;;;18.29;38.24;99554.72;5032861;28;20121;-78
2022/05/08 10:14:13;;;;;;;0.40;0.40;;;;;;;18.38;39.06;99547.41;5032639;28;20100;-78
2022/05/08 10:17:04;;;;;;;0.63;0.63;;;;;;;18.49;39.46;99538.97;5031587;28;20041;-78
2022/05/08 10:19:32;;;;;;;0.20;0.20;;;;;;;18.47;38.96;99549.31;5032355;28;20053;-78
2022/05/08 10:22:02;;;;;;;0.00;0.00;;;;;;;18.49;38.96;99526.25;5032604;28;20025;-78
2022/05/08 10:24:34;;;;;;;0.08;0.08;;;;;;;18.51;39.84;99539.47;5030951;28;20041;-78
2022/05/08 10:27:14;;;;;;;0.22;0.22;;;;;;;18.46;39.94;99531.50;5032382;28;20025;-78
2022/05/08 10:29:49;;;;;;;1.75;0.88;;;;;;;18.55;40.60;99522.28;5031979;28;20029;-78
2022/05/08 10:32:32;;;;;;;0.47;0.47;;;;;;;18.66;40.32;99528.19;5032444;28;20171;-78
2022/05/08 10:35:07;;;;;;;0.00;0.00;;;;;;;18.75;39.54;99519.22;5031978;28;20494;-78
2022/05/08 10:37:34;;;;;;;0.10;0.10;;;;;;;18.82;36.69;99512.22;5030542;28;20464;-78
2022/05/08 10:40:00;;;;;;;0.75;0.47;;;;;;;18.89;33.68;99519.88;5030587;28;20037;-78
2022/05/08 10:42:29;;;;;;;0.10;0.10;;;;;;;19.00;33.81;99509.53;5047962;28;20021;-78
2022/05/08 10:44:55;;;;;;;;;;;;;;;19.14;32.43;99509.34;5052300;28;20068;-78
2022/05/08 10:47:33;;;;;;;0.15;0.15;;;;;;;19.24;33.34;99511.72;5050522;28;20035;-78
2022/05/08 10:50:09;;;;;;;0.00;0.00;;;;;;;19.25;33.40;99494.34;5050518;28;20481;-78
2022/05/08 10:52:45;;;;;;;0.10;0.10;;;;;;;19.34;33.58;99497.03;5051049;28;20119;-79
2022/05/08 10:55:12;;;;;;;0.10;0.10;;;;;;;19.36;33.90;99503.72;5051571;28;20498;-78
2022/05/08 10:57:39;;;;;;;0.20;0.20;;;;;;;19.40;32.16;99495.72;5050001;28;20110;-77
2022/05/08 11:00:09;;;;;;;0.40;0.40;;;;;;;19.42;32.97;99495.38;5051546;28;20029;-77
2022/05/08 11:02:47;;;;;;;0.25;0.25;;;;;;;19.48;33.24;99494.91;5051040;28;20037;-77
2022/05/08 11:05:17;;;;;;;0.65;0.43;;;;;;;19.47;33.06;99479.75;5050048;28;20029;-77
2022/05/08 11:08:02;;;;;;;0.10;0.10;;;;;;;19.57;33.89;99472.38;5051110;28;20052;-77
2022/05/08 11:10:30;;;;;;;0.10;0.10;;;;;;;19.60;32.77;99475.22;5051402;28;20408;-77
2022/05/08 11:13:10;;;;;;;1.02;1.02;;;;;;;19.53;31.05;99474.94;5051364;28;20108;-77
2022/05/08 11:15:36;;;;;;;0.10;0.10;;;;;;;19.56;32.60;99473.50;5050177;28;20029;-77
2022/05/08 11:18:15;;;;;;;0.00;0.00;;;;;;;19.69;32.16;99477.91;5051101;28;20052;-79
2022/05/08 11:20:59;;;;;;;;;;;;;;;19.80;32.87;99467.47;5050198;28;20060;-78
2022/05/08 11:23:35;;;;;;;0.10;0.10;;;;;;;19.89;32.68;99460.09;5051581;28;20448;-78
2022/05/08 11:26:09;;;;;;;0.00;0.00;;;;;;;20.01;32.42;99464.81;5051373;28;20040;-77
2022/05/08 11:28:36;;;;;;;0.00;0.00;;;;;;;19.97;31.33;99474.75;5051384;28;20495;-77
2022/05/08 11:31:18;;;;;;;0.00;0.00;;;;;;;19.98;32.77;99468.19;5050610;28;20029;-77
2022/05/08 11:36:35;;;;;;;0.00;0.00;;;;;;;20.00;33.22;99461.31;5050945;28;20106;-76
2022/05/08 11:39:08;;;;;;;0.10;0.10;;;;;;;20.10;33.26;99453.91;5049300;28;20040;-79
2022/05/08 11:41:44;;;;;;;0.00;0.00;;;;;;;20.17;33.70;99454.19;5041826;28;20049;-77
2022/05/08 11:44:17;;;;;;;0.80;0.80;;;;;;;20.21;33.83;99446.94;5031191;28;20029;-77
2022/05/08 11:46:49;;;;;;;0.10;0.10;;;;;;;20.35;34.27;99443.19;5029565;28;20029;-77
2022/05/08 11:49:19;;;;;;;0.10;0.10;;;;;;;20.46;33.93;99442.44;5031218;28;20066;-77
2022/05/08 11:51:58;;;;;;;0.10;0.10;;;;;;;20.56;34.28;99449.41;5030144;28;20491;-76
2022/05/08 11:54:32;;;;;;;0.10;0.10;;;;;;;20.56;33.79;99443.97;5029619;28;20396;-79
2022/05/08 11:57:17;;;;;;;0.10;0.10;;;;;;;20.66;34.32;99447.41;5030716;28;20113;-79
2022/05/08 12:00:13;;;;;;;0.20;0.20;;;;;;;20.67;34.84;99443.56;5029875;28;20396;-76
2022/05/08 12:02:44;;;;;;;0.95;0.73;;;;;;;20.71;35.00;99444.47;5025463;28;20452;-79